createdAt,value
2019-05-05T00:01:05.197Z,5.03
2019-05-05T00:03:55.034Z,4.90
2019-05-05T00:06:25.239Z,4.90
2019-05-05T00:08:55.033Z,4.80
2019-05-05T00:11:35.002Z,4.90
2019-05-05T00:14:12.238Z,4.80
2019-05-05T00:16:44.501Z,4.77
2019-05-05T00:19:19.144Z,5.20
2019-05-05T00:21:46.174Z,4.67
2019-05-05T00:24:15.963Z,5.97
2019-05-05T00:26:46.108Z,5.70
2019-05-05T00:29:16.149Z,5.17
2019-05-05T00:31:46.060Z,6.30
2019-05-05T00:34:15.902Z,5.43
2019-05-05T00:36:45.765Z,5.90
2019-05-05T00:39:15.861Z,5.80
2019-05-05T00:41:45.821Z,5.23
2019-05-05T00:44:15.693Z,5.30
2019-05-05T00:46:56.194Z,5.37
2019-05-05T00:49:45.584Z,5.40
2019-05-05T00:52:05.579Z,5.20
2019-05-05T00:54:35.541Z,5.40
2019-05-05T00:57:05.499Z,4.93
2019-05-05T00:59:47.526Z,5.90
2019-05-05T01:02:27.980Z,5.13
2019-05-05T01:05:15.932Z,5.07
2019-05-05T01:07:45.916Z,5.53
2019-05-05T01:10:15.967Z,5.37
2019-05-05T01:12:45.952Z,5.67
2019-05-05T01:15:15.954Z,6.67
2019-05-05T01:17:46.022Z,5.60
2019-05-05T01:20:16.129Z,5.63
2019-05-05T01:22:46.027Z,5.70
2019-05-05T01:25:16.503Z,5.23
2019-05-05T01:27:46.561Z,4.93
2019-05-05T01:30:20.954Z,5.40
2019-05-05T01:32:52.567Z,6.03
2019-05-05T01:35:22.399Z,4.70
2019-05-05T01:37:56.598Z,5.60
2019-05-05T01:40:30.791Z,4.47
2019-05-05T01:43:00.732Z,5.50
2019-05-05T01:45:30.647Z,5.90
2019-05-05T01:48:00.343Z,5.57
2019-05-05T01:50:30.149Z,5.10
2019-05-05T01:53:00.018Z,4.93
2019-05-05T01:55:29.990Z,4.33
2019-05-05T01:57:59.849Z,5.17
2019-05-05T02:00:29.699Z,5.57
2019-05-05T02:02:59.665Z,5.63
2019-05-05T02:05:29.496Z,5.40
2019-05-05T02:07:59.446Z,4.97
2019-05-05T02:10:29.267Z,4.70
2019-05-05T02:12:59.129Z,4.73
2019-05-05T02:15:28.973Z,5.17
2019-05-05T02:17:58.839Z,4.90
2019-05-05T02:20:46.058Z,4.17
2019-05-05T02:23:16.258Z,4.30
2019-05-05T02:25:46.275Z,5.57
2019-05-05T02:28:16.136Z,4.30
2019-05-05T02:30:47.590Z,4.43
2019-05-05T02:33:21.298Z,4.37
2019-05-05T02:35:51.161Z,4.83
2019-05-05T02:38:21.036Z,4.07
2019-05-05T02:40:54.848Z,4.60
2019-05-05T02:43:25.161Z,4.33
2019-05-05T02:46:18.932Z,4.77
2019-05-05T02:48:51.665Z,4.10
2019-05-05T02:51:25.702Z,4.67
2019-05-05T02:53:58.800Z,4.27
2019-05-05T02:56:34.176Z,4.20
2019-05-05T02:59:08.019Z,4.43
2019-05-05T03:01:44.632Z,4.43
2019-05-05T03:04:14.871Z,4.27
2019-05-05T03:06:47.613Z,4.40
2019-05-05T03:09:19.174Z,4.33
2019-05-05T03:11:51.203Z,4.60
2019-05-05T03:14:24.154Z,4.00
2019-05-05T03:16:54.417Z,4.30
2019-05-05T03:19:25.488Z,4.90
2019-05-05T03:21:56.185Z,4.17
2019-05-05T03:24:26.008Z,4.30
2019-05-05T03:26:55.933Z,4.37
2019-05-05T03:29:26.350Z,4.10
2019-05-05T03:31:57.415Z,3.90
2019-05-05T03:34:27.922Z,4.67
2019-05-05T03:36:57.846Z,4.23
2019-05-05T03:39:29.863Z,4.20
2019-05-05T03:42:03.520Z,4.23
2019-05-05T03:44:40.894Z,4.40
2019-05-05T03:47:10.764Z,4.27
2019-05-05T03:49:40.573Z,3.90
2019-05-05T03:52:10.495Z,4.20
2019-05-05T03:54:40.848Z,4.47
2019-05-05T03:57:10.880Z,4.30
2019-05-05T03:59:54.740Z,4.60
2019-05-05T04:02:26.087Z,4.60
2019-05-05T04:05:06.377Z,4.23
2019-05-05T04:07:36.550Z,4.53
2019-05-05T04:10:07.832Z,4.40
2019-05-05T04:12:38.206Z,4.00
2019-05-05T04:15:08.232Z,5.10
2019-05-05T04:17:44.280Z,4.53
2019-05-05T04:20:18.533Z,5.00
2019-05-05T04:22:48.368Z,4.60
2019-05-05T04:25:18.284Z,4.73
2019-05-05T04:27:48.699Z,4.83
2019-05-05T04:30:18.643Z,4.43
2019-05-05T04:32:48.545Z,4.43
2019-05-05T04:35:18.501Z,4.43
2019-05-05T04:37:48.328Z,4.50
2019-05-05T04:40:18.221Z,5.20
2019-05-05T04:42:48.095Z,5.30
2019-05-05T04:45:18.018Z,5.57
2019-05-05T04:47:53.938Z,5.07
2019-05-05T04:50:28.127Z,5.40
2019-05-05T04:52:59.606Z,5.20
2019-05-05T04:55:29.462Z,5.70
2019-05-05T04:57:59.427Z,5.23
2019-05-05T05:00:29.320Z,5.57
2019-05-05T05:03:09.628Z,6.20
2019-05-05T05:05:53.713Z,5.20
2019-05-05T05:08:24.752Z,5.00
2019-05-05T05:10:54.835Z,5.30
2019-05-05T05:13:24.767Z,5.30
2019-05-05T05:15:54.538Z,5.43
2019-05-05T05:18:24.353Z,6.57
2019-05-05T05:20:54.985Z,6.00
2019-05-05T05:23:24.962Z,5.30
2019-05-05T05:25:54.876Z,5.90
2019-05-05T05:28:31.257Z,5.93
2019-05-05T05:31:01.156Z,6.40
2019-05-05T05:33:31.032Z,5.97
2019-05-05T05:36:00.963Z,5.43
2019-05-05T05:38:30.859Z,5.57
2019-05-05T05:41:14.488Z,5.70
2019-05-05T05:43:48.840Z,5.83
2019-05-05T05:46:20.194Z,5.73
2019-05-05T05:49:07.984Z,5.93
2019-05-05T05:51:37.783Z,5.20
2019-05-05T05:54:07.660Z,4.80
2019-05-05T05:56:53.834Z,5.80
2019-05-05T05:59:45.237Z,5.67
2019-05-05T06:02:15.708Z,5.13
2019-05-05T06:04:45.748Z,4.87
2019-05-05T06:07:15.714Z,4.80
2019-05-05T06:09:45.676Z,5.33
2019-05-05T06:12:15.699Z,5.00
2019-05-05T06:14:45.557Z,4.47
2019-05-05T06:17:16.520Z,4.47
2019-05-05T06:19:46.539Z,4.13
2019-05-05T06:22:28.550Z,4.53
2019-05-05T06:24:51.070Z,4.83
2019-05-05T06:27:23.987Z,4.40
2019-05-05T06:29:54.404Z,4.30
2019-05-05T06:32:24.403Z,4.20
2019-05-05T06:34:54.256Z,4.17
2019-05-05T06:37:24.302Z,3.93
2019-05-05T06:39:55.821Z,4.27
2019-05-05T06:42:36.407Z,3.97
2019-05-05T06:45:11.176Z,3.80
2019-05-05T06:47:42.130Z,4.23
2019-05-05T06:50:13.920Z,3.77
2019-05-05T06:52:46.952Z,4.00
2019-05-05T06:55:15.298Z,3.33
2019-05-05T06:57:45.210Z,3.30
2019-05-05T07:00:15.118Z,3.53
2019-05-05T07:02:44.902Z,3.63
2019-05-05T07:05:14.749Z,3.77
2019-05-05T07:07:44.651Z,4.10
2019-05-05T07:10:15.000Z,3.40
2019-05-05T07:12:44.676Z,3.50
2019-05-05T07:15:14.672Z,3.63
2019-05-05T07:17:44.404Z,3.33
2019-05-05T07:20:15.348Z,3.00
2019-05-05T07:22:58.459Z,4.00
2019-05-05T07:25:16.566Z,3.50
2019-05-05T07:27:46.457Z,3.57
2019-05-05T07:30:17.411Z,3.97
2019-05-05T07:32:47.249Z,2.87
2019-05-05T07:35:18.728Z,3.20
2019-05-05T07:37:53.833Z,3.23
2019-05-05T07:40:24.188Z,3.07
2019-05-05T07:42:54.174Z,2.87
2019-05-05T07:45:25.864Z,3.30
2019-05-05T07:47:58.938Z,3.30
2019-05-05T07:50:32.474Z,4.30
2019-05-05T07:53:12.281Z,2.90
2019-05-05T07:55:34.380Z,3.53
2019-05-05T07:58:04.507Z,3.20
2019-05-05T08:00:34.488Z,3.07
2019-05-05T08:03:04.419Z,3.07
2019-05-05T08:05:34.621Z,3.30
2019-05-05T08:08:10.887Z,2.90
2019-05-05T08:10:40.724Z,3.43
2019-05-05T08:13:10.599Z,3.33
2019-05-05T08:15:55.990Z,2.83
2019-05-05T08:18:18.321Z,2.87
2019-05-05T08:21:05.203Z,3.03
2019-05-05T08:23:54.067Z,3.20
2019-05-05T08:26:35.122Z,3.33
2019-05-05T08:29:23.958Z,3.30
2019-05-05T08:31:55.960Z,3.30
2019-05-05T08:34:26.000Z,3.67
2019-05-05T08:36:55.899Z,4.10
2019-05-05T08:39:25.768Z,3.97
2019-05-05T08:41:55.717Z,3.80
2019-05-05T08:44:25.744Z,4.10
2019-05-05T08:46:55.591Z,3.50
2019-05-05T08:49:25.521Z,3.50
2019-05-05T08:51:55.468Z,3.50
2019-05-05T08:54:25.459Z,3.37
2019-05-05T08:56:56.244Z,4.40
2019-05-05T08:59:26.323Z,4.33
2019-05-05T09:01:56.101Z,3.77
2019-05-05T09:04:25.982Z,4.27
2019-05-05T09:06:55.863Z,3.93
2019-05-05T09:09:25.744Z,4.30
2019-05-05T09:11:55.703Z,4.13
2019-05-05T09:14:25.646Z,4.67
2019-05-05T09:16:55.520Z,4.47
2019-05-05T09:19:25.429Z,5.10
2019-05-05T09:21:55.337Z,4.57
2019-05-05T09:24:34.084Z,4.27
2019-05-05T09:27:24.537Z,4.10
2019-05-05T09:29:54.395Z,4.53
2019-05-05T09:32:24.442Z,4.27
2019-05-05T09:34:54.546Z,4.57
2019-05-05T09:37:24.736Z,5.03
2019-05-05T09:39:54.745Z,4.80
2019-05-05T09:42:24.626Z,4.40
2019-05-05T09:44:54.601Z,4.47
2019-05-05T09:47:26.621Z,4.67
2019-05-05T09:49:56.455Z,4.43
2019-05-05T09:52:26.404Z,4.70
2019-05-05T09:54:56.526Z,4.37
2019-05-05T09:57:26.677Z,4.13
2019-05-05T10:00:01.686Z,5.00
2019-05-05T10:02:31.935Z,5.07
2019-05-05T10:05:03.920Z,3.70
2019-05-05T10:07:41.052Z,4.17
2019-05-05T10:10:24.341Z,5.00
2019-05-05T10:12:55.221Z,4.03
2019-05-05T10:15:25.539Z,4.10
2019-05-05T10:18:03.508Z,4.77
2019-05-05T10:20:34.342Z,4.80
2019-05-05T10:23:04.785Z,4.73
2019-05-05T10:25:37.966Z,4.47
2019-05-05T10:28:11.050Z,4.43
2019-05-05T10:30:41.294Z,4.50
2019-05-05T10:36:44.260Z,4.17
2019-05-05T10:39:19.453Z,3.73
2019-05-05T10:41:49.241Z,4.27
2019-05-05T10:44:19.059Z,4.53
2019-05-05T10:46:48.875Z,4.03
2019-05-05T10:49:18.762Z,4.10
2019-05-05T10:51:48.693Z,4.10
2019-05-05T10:54:18.703Z,4.40
2019-05-05T10:56:49.605Z,4.53
2019-05-05T10:59:20.433Z,4.37
2019-05-05T11:01:50.332Z,4.67
2019-05-05T11:04:20.202Z,5.00
2019-05-05T11:06:54.234Z,5.20
2019-05-05T11:09:24.379Z,4.83
2019-05-05T11:11:54.380Z,4.30
2019-05-05T11:14:24.230Z,4.83
2019-05-05T11:16:56.545Z,5.10
2019-05-05T11:19:29.190Z,5.50
2019-05-05T11:22:00.282Z,5.30
2019-05-05T11:24:36.908Z,5.00
2019-05-05T11:27:06.926Z,4.83
2019-05-05T11:29:39.848Z,4.83
2019-05-05T11:32:15.657Z,4.60
2019-05-05T11:34:47.368Z,4.53
2019-05-05T11:37:17.385Z,3.77
2019-05-05T11:39:47.400Z,4.77
2019-05-05T11:42:20.280Z,4.87
2019-05-05T11:44:50.176Z,5.10
2019-05-05T11:47:20.854Z,4.60
2019-05-05T11:49:53.828Z,4.83
2019-05-05T11:52:22.154Z,3.83
2019-05-05T11:54:54.282Z,3.73
2019-05-05T11:57:24.039Z,3.40
2019-05-05T11:59:54.192Z,3.63
2019-05-05T12:02:24.409Z,3.00
2019-05-05T12:04:54.380Z,3.37
2019-05-05T12:07:25.244Z,2.73
2019-05-05T12:09:56.300Z,2.57
2019-05-05T12:12:26.085Z,2.93
2019-05-05T12:14:55.901Z,2.60
2019-05-05T12:17:35.241Z,3.03
2019-05-05T12:20:09.743Z,3.00
2019-05-05T12:22:39.652Z,3.60
2019-05-05T12:25:23.352Z,3.70
2019-05-05T12:27:59.680Z,3.77
2019-05-05T12:30:29.547Z,4.23
2019-05-05T12:32:59.611Z,4.13
2019-05-05T12:35:38.024Z,3.00
2019-05-05T12:38:07.980Z,3.90
2019-05-05T12:40:47.537Z,3.90
2019-05-05T12:43:21.998Z,3.83
2019-05-05T12:46:33.667Z,4.27
2019-05-05T12:49:22.441Z,3.53
2019-05-05T12:51:54.061Z,3.40
2019-05-05T12:54:24.729Z,3.90
2019-05-05T12:57:14.509Z,3.87
2019-05-05T12:59:56.206Z,4.20
2019-05-05T13:02:37.747Z,4.27
2019-05-05T13:05:26.488Z,3.87
2019-05-05T13:08:05.774Z,4.00
2019-05-05T13:10:35.714Z,4.43
2019-05-05T13:13:08.011Z,4.90
2019-05-05T13:15:37.926Z,4.43
2019-05-05T13:18:07.919Z,4.50
2019-05-05T13:20:39.438Z,3.47
2019-05-05T13:23:27.505Z,2.93
2019-05-05T13:26:17.361Z,3.60
2019-05-05T13:28:54.263Z,3.30
2019-05-05T13:31:31.199Z,3.90
2019-05-05T13:33:58.399Z,3.23
2019-05-05T13:36:29.391Z,3.47
2019-05-05T13:38:59.537Z,3.37
2019-05-05T13:41:29.565Z,3.50
2019-05-05T13:44:05.233Z,3.77
2019-05-05T13:46:44.309Z,3.57
2019-05-05T13:49:23.925Z,3.73
2019-05-05T13:52:01.560Z,3.90
2019-05-05T13:54:38.528Z,3.27
2019-05-05T13:57:17.078Z,4.00
2019-05-05T14:00:05.933Z,4.03
2019-05-05T14:02:29.530Z,3.73
2019-05-05T14:05:04.652Z,3.83
2019-05-05T14:07:34.688Z,4.73
2019-05-05T14:10:11.822Z,4.60
2019-05-05T14:12:45.827Z,4.10
2019-05-05T14:15:37.498Z,4.60
2019-05-05T14:17:59.313Z,4.53
2019-05-05T14:20:31.555Z,4.40
2019-05-05T14:23:03.732Z,4.33
2019-05-05T14:25:37.145Z,4.43
2019-05-05T14:28:23.469Z,4.47
2019-05-05T14:30:55.376Z,4.23
2019-05-05T14:33:27.141Z,4.47
2019-05-05T14:35:59.213Z,3.93
2019-05-05T14:38:44.813Z,3.83
2019-05-05T14:41:24.573Z,4.33
2019-05-05T14:43:56.526Z,3.90
2019-05-05T14:46:39.795Z,4.50
2019-05-05T14:49:05.805Z,3.97
2019-05-05T14:51:36.822Z,4.60
2019-05-05T14:54:06.840Z,4.23
2019-05-05T14:56:47.888Z,3.90
2019-05-05T14:59:23.515Z,4.07
2019-05-05T15:02:04.119Z,3.40
2019-05-05T15:04:48.334Z,4.17
2019-05-05T15:07:36.274Z,4.37
2019-05-05T15:20:18.868Z,5.27
2019-05-05T15:22:48.672Z,5.57
2019-05-05T15:25:18.427Z,5.80
2019-05-05T15:27:48.193Z,5.67
2019-05-05T15:30:18.061Z,6.07
2019-05-05T15:32:47.866Z,5.60
2019-05-05T15:35:17.746Z,4.77
2019-05-05T15:37:47.473Z,4.70
2019-05-05T15:40:18.761Z,4.93
2019-05-05T15:42:48.881Z,4.93
2019-05-05T15:45:18.821Z,5.33
2019-05-05T15:47:53.904Z,4.60
2019-05-05T15:50:23.808Z,4.43
2019-05-05T15:52:54.974Z,4.33
2019-05-05T15:55:24.812Z,4.67
2019-05-05T15:57:55.599Z,4.90
2019-05-05T16:00:30.262Z,4.13
2019-05-05T16:03:08.993Z,4.17
2019-05-05T16:08:56.625Z,5.13
2019-05-05T16:14:26.614Z,5.00
2019-05-05T16:17:13.534Z,5.03
2019-05-05T16:19:45.930Z,5.20
2019-05-05T16:22:36.131Z,4.20
2019-05-05T16:31:30.415Z,4.63
2019-05-05T16:34:05.673Z,4.57
2019-05-05T16:36:40.639Z,5.20
2019-05-05T16:39:25.280Z,4.90
2019-05-05T16:41:58.836Z,4.93
2019-05-05T16:44:37.126Z,4.47
2019-05-05T16:47:44.147Z,4.00
2019-05-05T16:50:16.381Z,3.57
2019-05-05T16:52:57.748Z,4.50
2019-05-05T16:55:34.371Z,3.90
2019-05-05T16:58:08.048Z,3.67
2019-05-05T17:00:41.257Z,4.00
2019-05-05T17:03:13.355Z,3.73
2019-05-05T17:05:58.332Z,4.03
2019-05-05T17:08:28.246Z,3.97
2019-05-05T17:11:00.893Z,4.17
2019-05-05T17:13:48.830Z,3.87
2019-05-05T17:16:26.589Z,4.13
2019-05-05T17:19:07.442Z,3.77
2019-05-05T17:22:10.580Z,4.30
2019-05-05T17:24:44.109Z,3.63
2019-05-05T17:27:18.425Z,3.80
2019-05-05T17:29:48.665Z,4.27
2019-05-05T17:32:22.150Z,4.73
2019-05-05T17:34:55.527Z,4.40
2019-05-05T17:37:34.299Z,4.33
2019-05-05T17:40:08.037Z,3.80
2019-05-05T17:42:45.889Z,3.77
2019-05-05T17:45:36.138Z,4.03
2019-05-05T17:48:14.167Z,4.00
2019-05-05T17:51:01.538Z,4.30
2019-05-05T17:53:38.817Z,3.83
2019-05-05T17:56:18.751Z,4.20
2019-05-05T17:58:57.336Z,3.50
2019-05-05T18:01:27.320Z,3.70
2019-05-05T18:03:57.256Z,3.70
2019-05-05T18:06:35.261Z,3.80
2019-05-05T18:09:23.523Z,3.77
2019-05-05T18:11:58.008Z,3.57
2019-05-05T18:14:29.461Z,3.70
2019-05-05T18:17:05.583Z,3.60
2019-05-05T18:19:36.767Z,3.50
2019-05-05T18:22:09.187Z,3.50
2019-05-05T18:24:45.369Z,4.37
2019-05-05T18:27:18.927Z,3.67
2019-05-05T18:29:48.975Z,4.00
2019-05-05T18:32:18.865Z,3.40
2019-05-05T18:34:48.882Z,4.07
2019-05-05T18:37:18.886Z,4.20
2019-05-05T18:39:48.872Z,4.20
2019-05-05T18:42:20.413Z,3.77
2019-05-05T18:44:53.903Z,4.23
2019-05-05T18:47:25.155Z,4.50
2019-05-05T18:49:55.253Z,3.93
2019-05-05T18:52:26.089Z,4.30
2019-05-05T18:55:08.107Z,4.87
2019-05-05T18:57:38.029Z,4.27
2019-05-05T19:00:16.745Z,4.33
2019-05-05T19:03:00.497Z,4.20
2019-05-05T19:05:41.297Z,4.30
2019-05-05T19:08:15.646Z,5.27
2019-05-05T19:10:47.681Z,4.20
2019-05-05T19:13:28.274Z,3.97
2019-05-05T19:16:03.715Z,4.83
2019-05-05T19:18:35.368Z,5.70
2019-05-05T19:21:25.540Z,5.03
2019-05-05T19:24:00.149Z,4.53
2019-05-05T19:26:33.636Z,5.30
2019-05-05T19:29:04.398Z,5.70
2019-05-05T19:31:36.225Z,5.00
2019-05-05T19:34:05.755Z,5.83
2019-05-05T19:36:35.635Z,4.83
2019-05-05T19:39:13.692Z,5.63
2019-05-05T19:41:46.920Z,5.50
2019-05-05T19:44:19.414Z,5.00
2019-05-05T19:47:00.361Z,5.67
2019-05-05T19:49:30.378Z,5.40
2019-05-05T19:52:00.270Z,5.57
2019-05-05T19:54:30.141Z,6.40
2019-05-05T19:57:00.187Z,5.43
2019-05-05T19:59:30.238Z,6.13
2019-05-05T20:02:00.203Z,5.80
2019-05-05T20:04:34.465Z,5.23
2019-05-05T20:07:04.537Z,5.77
2019-05-05T20:09:34.312Z,5.73
2019-05-05T20:12:04.788Z,6.20
2019-05-05T20:14:34.668Z,6.73
2019-05-05T20:17:12.204Z,5.90
2019-05-05T20:19:44.145Z,5.70
2019-05-05T20:22:14.727Z,5.80
2019-05-05T20:24:45.869Z,5.33
2019-05-05T20:27:17.104Z,5.43
2019-05-05T20:29:47.075Z,4.87
2019-05-05T20:32:18.961Z,4.77
2019-05-05T20:34:50.992Z,4.27
2019-05-05T20:37:31.726Z,4.50
2019-05-05T20:40:03.850Z,4.90
2019-05-05T20:42:33.791Z,3.47
2019-05-05T20:45:04.689Z,3.43
2019-05-05T20:47:34.614Z,4.30
2019-05-05T20:50:06.501Z,4.13
2019-05-05T20:52:36.291Z,4.00
2019-05-05T20:55:07.089Z,3.30
2019-05-05T20:57:37.010Z,4.20
2019-05-05T21:00:07.174Z,3.40
2019-05-05T21:02:37.033Z,3.60
2019-05-05T21:05:07.488Z,4.17
2019-05-05T21:07:37.375Z,4.40
2019-05-05T21:10:08.126Z,3.90
2019-05-05T21:12:42.313Z,4.17
2019-05-05T21:15:12.789Z,4.33
2019-05-05T21:17:41.238Z,3.97
2019-05-05T21:20:11.381Z,4.23
2019-05-05T21:22:44.247Z,4.30
2019-05-05T21:25:27.942Z,4.93
2019-05-05T21:27:57.858Z,5.10
2019-05-05T21:30:27.799Z,5.17
2019-05-05T21:32:57.716Z,4.47
2019-05-05T21:35:27.642Z,4.87
2019-05-05T21:37:57.538Z,4.57
2019-05-05T21:40:27.697Z,4.83
2019-05-05T21:42:57.653Z,5.07
2019-05-05T21:45:27.628Z,5.20
2019-05-05T21:47:57.514Z,5.37
2019-05-05T21:50:28.990Z,4.63
2019-05-05T21:53:00.494Z,4.67
2019-05-05T21:55:35.040Z,4.60
2019-05-05T21:58:06.558Z,4.60
2019-05-05T22:00:49.997Z,5.30
2019-05-05T22:03:38.154Z,5.00
2019-05-05T22:06:08.157Z,4.53
2019-05-05T22:08:38.027Z,4.37
2019-05-05T22:11:08.041Z,4.60
2019-05-05T22:13:37.867Z,5.00
2019-05-05T22:16:07.734Z,4.87
2019-05-05T22:18:37.679Z,4.70
2019-05-05T22:21:09.183Z,5.53
2019-05-05T22:23:39.073Z,5.27
2019-05-05T22:26:08.995Z,5.67
2019-05-05T22:28:38.863Z,6.07
2019-05-05T22:31:08.748Z,5.67
2019-05-05T22:33:38.626Z,5.03
2019-05-05T22:36:08.479Z,5.30
2019-05-05T22:38:38.455Z,5.20
2019-05-05T22:41:08.341Z,5.00
2019-05-05T22:43:38.222Z,6.00
2019-05-05T22:46:08.172Z,4.83
2019-05-05T22:48:38.173Z,5.80
2019-05-05T22:51:08.102Z,6.10
2019-05-05T22:53:37.964Z,5.60
2019-05-05T22:56:07.922Z,5.67
2019-05-05T22:58:37.858Z,6.10
2019-05-05T23:01:07.966Z,5.63
2019-05-05T23:03:45.561Z,5.93
2019-05-05T23:06:17.110Z,5.63
2019-05-05T23:08:47.226Z,6.10
2019-05-05T23:11:17.210Z,6.33
2019-05-05T23:13:47.215Z,5.50
2019-05-05T23:16:23.760Z,5.43
2019-05-05T23:18:54.671Z,6.30
2019-05-05T23:21:26.673Z,6.53
2019-05-05T23:24:10.041Z,7.10
2019-05-05T23:26:43.631Z,6.37
2019-05-05T23:29:13.402Z,6.23
2019-05-05T23:31:44.456Z,5.67
2019-05-05T23:34:14.875Z,5.80
2019-05-05T23:36:44.942Z,5.77
2019-05-05T23:39:14.911Z,5.70
2019-05-05T23:41:44.911Z,6.03
2019-05-05T23:44:14.881Z,5.87
2019-05-05T23:46:45.092Z,6.40
2019-05-05T23:49:15.050Z,5.87
2019-05-05T23:51:45.123Z,6.07
2019-05-05T23:54:15.236Z,6.53
2019-05-05T23:56:45.247Z,6.27
2019-05-05T23:59:15.245Z,6.63
